Time;durP1;ratioP1;P1;durP2;ratioP2;P2;SDS_P1;SDS_P2;PMS_P1;PMS_P2;Temp;Humidity;BMP_temperature;BMP_pressure;BME280_temperature;BME280_humidity;BME280_pressure;Samples;Min_cycle;Max_cycle;Signal;HPM_P1;HPM_P2
2021/12/31 00:00:40;;;;;;;26.50;14.03;;;;;;;9.27;100.00;100468.42;1691975;82;99629;-75
2021/12/31 00:03:08;;;;;;;29.50;14.35;;;;;;;9.25;100.00;100459.59;1694956;82;25763;-75
2021/12/31 00:05:34;;;;;;;31.60;15.78;;;;;;;9.25;100.00;100464.95;1710693;82;99307;-74
2021/12/31 00:08:01;;;;;;;29.95;15.70;;;;;;;9.29;100.00;100465.22;1688617;83;26694;-75
2021/12/31 00:10:28;;;;;;;37.67;16.40;;;;;;;9.31;100.00;100468.70;1704611;82;26521;-75
2021/12/31 00:12:56;;;;;;;31.52;15.53;;;;;;;9.32;100.00;100469.58;1713907;80;99676;-74
2021/12/31 00:15:21;;;;;;;38.60;15.38;;;;;;;9.33;100.00;100468.64;1740194;80;25916;-75
2021/12/31 00:17:49;;;;;;;33.78;15.30;;;;;;;9.32;100.00;100466.44;1737279;80;99526;-74
2021/12/31 00:20:20;;;;;;;36.53;16.95;;;;;;;9.33;100.00;100450.79;1747443;80;25850;-75
2021/12/31 00:25:28;;;;;;;34.45;16.37;;;;;;;9.36;100.00;100446.65;1740558;80;99058;-74
2021/12/31 00:27:55;;;;;;;34.80;16.35;;;;;;;9.36;100.00;100453.34;1686345;83;25898;-74
2021/12/31 00:30:21;;;;;;;35.17;18.65;;;;;;;9.37;100.00;100454.21;1696804;82;99036;-74
2021/12/31 00:32:48;;;;;;;32.98;16.97;;;;;;;9.36;100.00;100446.65;1715783;81;25867;-74
2021/12/31 00:35:15;;;;;;;40.23;18.82;;;;;;;9.35;100.00;100445.38;1716314;82;25778;-74
2021/12/31 00:37:41;;;;;;;39.60;18.12;;;;;;;9.37;100.00;100450.20;1749600;80;99062;-74
2021/12/31 00:40:13;;;;;;;37.17;18.57;;;;;;;9.38;100.00;100457.28;1752792;80;25800;-74
2021/12/31 00:42:40;;;;;;;39.33;18.60;;;;;;;9.36;100.00;100452.00;1751337;80;99183;-74
2021/12/31 00:45:10;;;;;;;37.93;17.95;;;;;;;9.37;100.00;100444.84;1714708;82;25767;-74
2021/12/31 00:47:38;;;;;;;44.48;18.75;;;;;;;9.35;100.00;100451.59;1750178;80;99263;-74
2021/12/31 00:50:05;;;;;;;39.85;19.92;;;;;;;9.38;100.00;100447.92;1753107;80;27416;-74
2021/12/31 00:52:35;;;;;;;44.80;20.37;;;;;;;9.35;100.00;100444.91;1753229;80;44197;-74
2021/12/31 00:55:05;;;;;;;43.70;20.43;;;;;;;9.36;100.00;100447.12;1754784;79;99104;-74
2021/12/31 00:57:35;;;;;;;44.23;18.80;;;;;;;9.33;100.00;100450.79;1754014;80;25762;-75
2021/12/31 01:00:06;;;;;;;44.35;20.08;;;;;;;9.34;100.00;100444.97;1715966;82;99294;-74
2021/12/31 01:02:33;;;;;;;41.95;19.37;;;;;;;9.34;100.00;100451.20;1758229;80;25698;-74
2021/12/31 01:05:03;;;;;;;51.05;21.85;;;;;;;9.33;100.00;100464.63;1722727;82;25555;-74
2021/12/31 01:07:29;;;;;;;43.60;20.32;;;;;;;9.33;100.00;100465.50;1721823;81;98298;-74
2021/12/31 01:09:55;;;;;;;43.10;19.17;;;;;;;9.28;100.00;100477.32;1756273;80;27828;-74
2021/12/31 01:12:23;;;;;;;43.60;19.02;;;;;;;9.26;100.00;100478.72;1749067;80;99563;-74
2021/12/31 01:17:22;;;;;;;46.42;21.85;;;;;;;9.23;100.00;100481.52;1748980;80;25915;-74
2021/12/31 01:19:46;;;;;;;44.50;21.05;;;;;;;9.23;100.00;100477.97;1745892;80;99128;-74
2021/12/31 01:22:31;;;;;;;51.10;21.48;;;;;;;9.23;100.00;100477.51;1748436;80;25706;-74
2021/12/31 01:24:57;;;;;;;46.58;20.43;;;;;;;9.26;100.00;100484.07;1748967;80;99100;-74
2021/12/31 01:27:23;;;;;;;45.45;19.07;;;;;;;9.23;100.00;100478.84;1753316;80;27267;-74
2021/12/31 01:29:49;;;;;;;44.08;20.25;;;;;;;9.25;100.00;100481.45;1761158;79;99223;-74
2021/12/31 01:32:17;;;;;;;43.75;19.80;;;;;;;9.25;100.00;100494.83;1752417;79;26632;-74
2021/12/31 01:34:45;;;;;;;46.68;21.62;;;;;;;9.27;100.00;100501.86;1768661;79;26456;-74
2021/12/31 01:37:11;;;;;;;44.63;20.32;;;;;;;9.25;100.00;100509.07;1771186;79;99095;-74
2021/12/31 01:39:38;;;;;;;34.85;17.50;;;;;;;9.26;100.00;100504.13;1770256;79;27383;-74
2021/12/31 01:42:12;;;;;;;40.50;18.98;;;;;;;9.25;100.00;100518.43;1771273;79;99150;-73
2021/12/31 01:44:46;;;;;;;38.58;16.62;;;;;;;9.24;100.00;100508.67;1776151;79;26529;-74
2021/12/31 01:47:13;;;;;;;42.30;17.77;;;;;;;9.26;100.00;100504.59;1770038;79;26881;-74
2021/12/31 01:49:43;;;;;;;43.15;19.07;;;;;;;9.28;100.00;100495.58;1773430;79;99063;-74
2021/12/31 01:52:10;;;;;;;39.90;18.37;;;;;;;9.30;100.00;100496.38;1778981;78;28099;-74
2021/12/31 01:54:40;;;;;;;48.02;20.27;;;;;;;9.33;100.00;100510.10;1735604;80;99047;-74
2021/12/31 01:57:09;;;;;;;40.80;17.45;;;;;;;9.32;100.00;100519.92;1778635;79;25917;-74
2021/12/31 01:59:38;;;;;;;39.30;19.02;;;;;;;9.34;100.00;100519.40;1771745;79;99326;-73
2021/12/31 02:02:08;;;;;;;43.15;18.98;;;;;;;9.36;100.00;100516.66;1778036;78;26452;-74
2021/12/31 02:04:39;;;;;;;38.63;17.77;;;;;;;9.37;100.00;100520.62;1774687;79;27377;-74
2021/12/31 02:07:07;;;;;;;40.17;17.90;;;;;;;9.39;100.00;100520.55;1735012;81;99106;-74
2021/12/31 02:09:39;;;;;;;43.30;18.70;;;;;;;9.39;100.00;100501.83;1775676;79;26561;-74
2021/12/31 02:12:08;;;;;;;39.73;18.75;;;;;;;9.43;100.00;100509.67;1770948;79;99162;-74
2021/12/31 02:14:35;;;;;;;;;;;;;;;9.45;100.00;100501.58;1781574;79;26086;-74
2021/12/31 02:17:07;;;;;;;39.08;17.05;;;;;;;9.47;100.00;100501.52;1768659;79;27435;-74
2021/12/31 02:19:31;;;;;;;42.00;18.20;;;;;;;9.44;100.00;100492.69;1769861;79;99193;-74
2021/12/31 02:21:59;;;;;;;39.83;17.77;;;;;;;9.48;100.00;100493.89;1767063;78;25824;-74
2021/12/31 02:24:26;;;;;;;40.63;17.55;;;;;;;9.50;100.00;100492.02;1771461;79;99079;-74
2021/12/31 02:26:52;;;;;;;48.68;20.23;;;;;;;9.48;100.00;100488.08;1779706;78;25741;-74
2021/12/31 02:29:36;;;;;;;;;;;;;;;;;;;;;
2021/12/31 02:31:48;;;;;;;45.33;19.62;;;;;;;9.50;100.00;100482.19;1763996;79;99130;-74
2021/12/31 02:34:14;;;;;;;39.18;18.52;;;;;;;9.46;100.00;100474.36;1775316;79;25868;-74
2021/12/31 02:36:40;;;;;;;42.58;19.30;;;;;;;9.44;100.00;100474.42;1773013;79;98938;-74
2021/12/31 02:39:08;;;;;;;41.85;20.77;;;;;;;9.44;100.00;100473.95;1774657;79;25844;-74
2021/12/31 02:41:36;;;;;;;40.67;21.05;;;;;;;9.47;100.00;100481.45;1770413;78;99246;-73
2021/12/31 02:44:04;;;;;;;45.58;20.70;;;;;;;9.43;100.00;100484.72;1775038;79;25755;-73
2021/12/31 02:46:30;;;;;;;41.08;21.10;;;;;;;9.42;100.00;100478.97;1778908;79;25800;-73
2021/12/31 02:48:57;;;;;;;40.12;19.80;;;;;;;9.42;100.00;100473.61;1781291;79;99115;-73
2021/12/31 02:51:30;;;;;;;36.58;18.20;;;;;;;9.43;100.00;100481.58;1771345;78;25787;-73
2021/12/31 02:53:58;;;;;;;66.30;24.52;;;;;;;9.43;100.00;100482.05;1781650;79;99216;-73
2021/12/31 02:56:24;;;;;;;73.78;29.07;;;;;;;9.44;100.00;100488.67;1776743;79;26417;-73
2021/12/31 02:58:52;;;;;;;93.35;35.33;;;;;;;9.44;100.00;100487.33;1782600;79;26473;-73
2021/12/31 03:01:20;;;;;;;81.90;32.95;;;;;;;9.44;100.00;100485.13;1781112;79;99090;-73
2021/12/31 03:03:49;;;;;;;58.75;23.73;;;;;;;9.44;100.00;100477.09;1779139;79;25692;-72
2021/12/31 03:06:19;;;;;;;36.83;18.12;;;;;;;9.46;100.00;100471.69;1743331;80;99160;-72
2021/12/31 03:08:49;;;;;;;32.15;15.50;;;;;;;9.43;100.00;100465.53;1742837;80;25953;-73
2021/12/31 03:11:21;;;;;;;34.05;15.58;;;;;;;9.43;100.00;100472.22;1768229;79;25806;-73
2021/12/31 03:13:52;;;;;;;31.85;14.58;;;;;;;9.41;100.00;100478.09;1774936;78;99236;-73
2021/12/31 03:16:22;;;;;;;;;;;;;;;9.44;100.00;100477.97;1773025;79;25729;-73
2021/12/31 03:18:50;;;;;;;29.87;14.18;;;;;;;9.43;100.00;100480.23;1778125;79;84485;-72
2021/12/31 03:21:22;;;;;;;30.05;14.15;;;;;;;9.39;100.00;100490.66;1770032;79;27316;-72
2021/12/31 03:23:52;;;;;;;28.70;14.93;;;;;;;9.41;100.00;100487.92;1772754;79;99256;-72
2021/12/31 03:26:21;;;;;;;29.23;13.73;;;;;;;9.41;100.00;100488.80;1775565;79;25803;-72
2021/12/31 03:28:49;;;;;;;33.85;14.98;;;;;;;9.47;100.00;100488.14;1771475;79;25761;-72
2021/12/31 03:31:17;;;;;;;26.90;13.32;;;;;;;9.49;100.00;100487.61;1765420;79;99006;-72
2021/12/31 03:33:46;;;;;;;24.90;13.62;;;;;;;9.49;100.00;100476.91;1765367;79;25749;-72
2021/12/31 03:36:12;;;;;;;25.27;12.95;;;;;;;9.48;100.00;100480.52;1766849;79;99247;-72
2021/12/31 03:38:40;;;;;;;24.18;12.50;;;;;;;9.49;100.00;100476.91;1769747;79;25948;-72
2021/12/31 03:41:09;;;;;;;23.45;12.23;;;;;;;9.49;100.00;100476.91;1760941;79;25725;-72
2021/12/31 03:43:36;;;;;;;26.23;12.95;;;;;;;9.51;100.00;100480.39;1767411;79;99075;-72
2021/12/31 03:46:02;;;;;;;25.35;12.35;;;;;;;9.52;100.00;100478.12;1762222;79;25819;-72
2021/12/31 03:48:28;;;;;;;26.17;13.35;;;;;;;9.54;100.00;100472.23;1759178;79;99173;-72
2021/12/31 03:50:56;;;;;;;22.15;12.07;;;;;;;9.54;100.00;100474.91;1764163;79;26421;-72
2021/12/31 03:53:23;;;;;;;22.77;12.70;;;;;;;9.54;100.00;100469.56;1767281;79;25665;-73
2021/12/31 03:55:51;;;;;;;24.07;12.03;;;;;;;9.56;100.00;100475.72;1766095;79;98958;-72
2021/12/31 03:58:16;;;;;;;22.13;12.68;;;;;;;9.58;100.00;100471.17;1770198;79;26417;-73
2021/12/31 04:00:45;;;;;;;21.12;10.10;;;;;;;9.58;100.00;100468.03;1764113;79;99132;-72
2021/12/31 04:03:12;;;;;;;25.72;11.68;;;;;;;9.59;100.00;100457.73;1771651;79;25768;-72
2021/12/31 04:05:41;;;;;;;27.70;11.00;;;;;;;9.58;100.00;100460.00;1764363;79;99166;-71
2021/12/31 04:08:10;;;;;;;19.80;11.30;;;;;;;9.59;100.00;100456.39;1763291;79;27430;-72
2021/12/31 04:10:38;;;;;;;19.92;10.60;;;;;;;9.59;100.00;100454.18;1764653;79;25742;-72
2021/12/31 04:13:06;;;;;;;20.25;10.28;;;;;;;9.59;100.00;100462.20;1768282;79;99080;-72
2021/12/31 04:15:32;;;;;;;17.07;10.13;;;;;;;9.57;100.00;100458.73;1766122;79;26338;-72
2021/12/31 04:17:58;;;;;;;19.60;11.25;;;;;;;9.55;100.00;100464.61;1766367;79;99343;-72
2021/12/31 04:20:42;;;;;;;30.37;14.35;;;;;;;9.57;100.00;100460.06;1762296;80;27612;-72
2021/12/31 04:23:14;;;;;;;51.55;23.47;;;;;;;9.58;100.00;100463.14;1766600;79;25763;-72
2021/12/31 04:25:39;;;;;;;31.97;15.03;;;;;;;9.59;100.00;100459.53;1765705;79;98982;-72
2021/12/31 04:28:08;;;;;;;20.50;11.48;;;;;;;9.58;100.00;100463.14;1769290;79;25684;-72
2021/12/31 04:30:36;;;;;;;18.60;10.15;;;;;;;9.58;100.00;100467.16;1764954;79;99185;-72
2021/12/31 04:33:03;;;;;;;19.52;10.58;;;;;;;9.59;100.00;100467.09;1777765;78;27616;-72
2021/12/31 04:35:31;;;;;;;16.25;9.65;;;;;;;9.59;100.00;100460.41;1774489;79;25750;-72
2021/12/31 04:37:57;;;;;;;17.32;10.28;;;;;;;9.60;100.00;100459.94;1774874;79;98865;-72
2021/12/31 04:40:25;;;;;;;15.45;9.30;;;;;;;9.61;100.00;100453.65;1772945;78;25775;-72
2021/12/31 04:42:52;;;;;;;16.25;9.40;;;;;;;9.60;100.00;100450.57;1775550;79;99023;-72
2021/12/31 04:45:19;;;;;;;15.45;9.73;;;;;;;9.62;100.00;100460.27;1773591;79;25946;-73
2021/12/31 04:47:47;;;;;;;16.37;9.23;;;;;;;9.62;100.00;100449.57;1772521;79;99047;-72
2021/12/31 04:50:13;;;;;;;16.95;9.25;;;;;;;9.62;100.00;100450.04;1775041;78;25728;-73
2021/12/31 04:52:40;;;;;;;15.45;9.63;;;;;;;9.62;100.00;100458.94;1776570;79;25711;-73
2021/12/31 04:55:07;;;;;;;14.73;9.15;;;;;;;9.65;100.00;100463.29;1768340;78;99009;-73
2021/12/31 04:57:35;;;;;;;15.78;9.38;;;;;;;9.66;100.00;100467.23;1774895;78;27314;-72
2021/12/31 05:00:01;;;;;;;13.88;9.03;;;;;;;9.67;100.00;100460.08;1772478;78;98993;-73
2021/12/31 05:02:27;;;;;;;14.70;9.80;;;;;;;9.67;100.00;100452.05;1775185;78;26100;-73
2021/12/31 05:04:55;;;;;;;13.65;8.60;;;;;;;9.65;100.00;100451.25;1779187;79;25886;-72
2021/12/31 05:07:21;;;;;;;12.95;8.35;;;;;;;9.66;100.00;100450.31;1771933;78;99134;-72
2021/12/31 05:09:51;;;;;;;11.85;7.85;;;;;;;9.64;100.00;100449.03;1773402;79;28032;-73
2021/12/31 05:12:23;;;;;;;12.15;7.80;;;;;;;9.67;100.00;100458.27;1773874;78;99104;-72
2021/12/31 05:14:45;;;;;;;12.88;7.80;;;;;;;9.68;100.00;100450.65;1777901;79;25799;-73
2021/12/31 05:17:13;;;;;;;13.18;8.83;;;;;;;9.68;100.00;100447.10;1774391;79;25812;-72
2021/12/31 05:19:44;;;;;;;15.10;10.00;;;;;;;9.68;100.00;100455.13;1775957;78;99224;-73
2021/12/31 05:22:11;;;;;;;13.00;9.35;;;;;;;9.67;100.00;100448.03;1774634;79;27467;-73
2021/12/31 05:24:38;;;;;;;14.30;9.68;;;;;;;9.67;100.00;100452.92;1766957;79;98804;-73
2021/12/31 05:27:07;;;;;;;17.00;10.65;;;;;;;9.67;100.00;100450.72;1780898;78;25806;-73
2021/12/31 05:29:38;;;;;;;15.25;9.30;;;;;;;9.71;100.00;100449.64;1776737;78;99259;-71
2021/12/31 05:32:07;;;;;;;13.45;9.13;;;;;;;9.72;100.00;100450.92;1772539;79;25887;-73
2021/12/31 05:34:33;;;;;;;17.37;10.38;;;;;;;9.73;100.00;100455.80;1766090;79;25779;-73
2021/12/31 05:36:59;;;;;;;15.58;9.25;;;;;;;9.73;100.00;100455.34;1773926;78;98984;-73
2021/12/31 05:39:28;;;;;;;13.75;8.70;;;;;;;9.74;100.00;100461.09;1772538;79;26330;-73
2021/12/31 05:41:54;;;;;;;12.75;8.00;;;;;;;9.74;100.00;100452.19;1772462;78;98173;-72
2021/12/31 05:44:23;;;;;;;16.85;9.25;;;;;;;9.76;100.00;100451.66;1745577;80;26285;-73
2021/12/31 05:46:52;;;;;;;13.30;7.53;;;;;;;9.79;100.00;100450.66;1777381;79;27380;-73
2021/12/31 05:49:17;;;;;;;14.00;8.10;;;;;;;9.81;100.00;100454.14;1781186;79;98651;-73
2021/12/31 05:51:44;;;;;;;16.20;8.38;;;;;;;9.83;100.00;100453.60;1778196;79;25678;-73
2021/12/31 05:54:09;;;;;;;11.68;7.78;;;;;;;9.84;100.00;100453.53;1778464;79;99235;-73
2021/12/31 05:56:35;;;;;;;12.53;7.12;;;;;;;9.87;100.00;100460.09;1776223;79;26274;-73
2021/12/31 05:59:02;;;;;;;11.55;7.22;;;;;;;9.88;100.00;100454.27;1770863;79;28829;-74
2021/12/31 06:01:28;;;;;;;11.60;7.80;;;;;;;9.89;100.00;100458.22;1738901;80;99118;-73
2021/12/31 06:03:54;;;;;;;13.05;7.30;;;;;;;9.90;100.00;100461.77;1741870;80;25927;-74
2021/12/31 06:06:21;;;;;;;11.10;7.17;;;;;;;9.89;100.00;100458.22;1732474;81;98995;-74
2021/12/31 06:08:49;;;;;;;11.80;7.58;;;;;;;9.89;100.00;100458.69;1738783;81;25442;-74
2021/12/31 06:11:15;;;;;;;15.28;8.78;;;;;;;9.87;100.00;100464.11;1737861;81;25777;-74
2021/12/31 06:13:44;;;;;;;17.20;8.45;;;;;;;9.89;100.00;100462.23;1739313;80;98908;-74
2021/12/31 06:16:13;;;;;;;14.18;7.28;;;;;;;9.89;100.00;100464.05;1773260;79;26010;-74
2021/12/31 06:18:39;;;;;;;13.55;7.60;;;;;;;9.89;100.00;100471.61;1772423;79;99163;-74
2021/12/31 06:21:09;;;;;;;13.65;8.70;;;;;;;9.92;100.00;100474.63;1733335;81;25971;-74
2021/12/31 06:23:35;;;;;;;12.73;7.70;;;;;;;9.92;100.00;100478.17;1739657;80;99192;-74
2021/12/31 06:26:02;;;;;;;15.63;8.85;;;;;;;9.96;100.00;100474.89;1718309;82;25882;-74
2021/12/31 06:28:28;;;;;;;18.27;9.28;;;;;;;9.95;100.00;100474.02;1717167;81;25820;-74
2021/12/31 06:30:54;;;;;;;19.80;9.48;;;;;;;10.01;100.00;100474.22;1715209;81;98972;-73
2021/12/31 06:33:20;;;;;;;18.95;9.88;;;;;;;10.01;100.00;100484.46;1720500;81;26551;-74
2021/12/31 06:35:46;;;;;;;15.70;9.10;;;;;;;10.02;100.00;100474.16;1704381;81;99236;-74
2021/12/31 06:38:12;;;;;;;14.95;7.75;;;;;;;10.01;100.00;100480.45;1776476;79;27209;-74
2021/12/31 06:40:40;;;;;;;15.10;9.55;;;;;;;10.02;100.00;100486.20;1774088;79;25778;-74
2021/12/31 06:43:11;;;;;;;15.85;8.93;;;;;;;10.05;100.00;100498.59;1778053;79;99086;-74
2021/12/31 06:45:38;;;;;;;17.65;10.55;;;;;;;10.03;100.00;100493.30;1735547;80;25867;-74
2021/12/31 06:48:05;;;;;;;19.57;10.32;;;;;;;10.02;100.00;100499.59;1771220;79;99516;-74
2021/12/31 06:50:31;;;;;;;17.50;9.38;;;;;;;10.02;100.00;100490.22;1777952;78;25904;-74
2021/12/31 06:52:58;;;;;;;11.65;6.85;;;;;;;10.01;100.00;100489.82;1778430;79;25792;-74
2021/12/31 06:55:24;;;;;;;12.33;6.67;;;;;;;10.03;100.00;100491.09;1774135;79;99161;-74
2021/12/31 06:57:50;;;;;;;14.07;7.65;;;;;;;10.06;100.00;100486.47;1776739;79;25729;-74
2021/12/31 07:00:19;;;;;;;19.07;8.98;;;;;;;10.04;100.00;100484.33;1771023;78;99229;-74
2021/12/31 07:02:44;;;;;;;17.50;9.35;;;;;;;10.04;100.00;100485.67;1776460;79;25825;-75
2021/12/31 07:05:11;;;;;;;16.70;8.53;;;;;;;10.05;100.00;100486.54;1776149;79;25851;-73
2021/12/31 07:07:37;;;;;;;13.83;7.12;;;;;;;10.04;100.00;100490.16;1779365;79;99389;-74
2021/12/31 07:10:07;;;;;;;12.28;7.83;;;;;;;10.04;100.00;100500.86;1767878;79;25701;-75
2021/12/31 07:12:37;;;;;;;18.65;8.85;;;;;;;10.05;100.00;100497.25;1774800;79;99053;-74
2021/12/31 07:15:03;;;;;;;17.10;8.53;;;;;;;10.06;100.00;100500.33;1774673;79;26420;-73
2021/12/31 07:17:31;;;;;;;19.25;10.35;;;;;;;10.05;100.00;100501.27;1781014;79;25729;-74
2021/12/31 07:19:59;;;;;;;20.43;8.85;;;;;;;10.02;100.00;100502.27;1770131;79;99087;-74
2021/12/31 07:22:25;;;;;;;17.23;8.70;;;;;;;10.03;100.00;100508.50;1775702;78;25774;-72
2021/12/31 07:24:54;;;;;;;21.42;10.10;;;;;;;10.05;100.00;100498.59;1769148;78;99125;-72
2021/12/31 07:27:22;;;;;;;19.60;10.23;;;;;;;10.05;100.00;100506.16;1772531;79;26511;-73
2021/12/31 07:29:48;;;;;;;18.85;10.28;;;;;;;10.06;100.00;100511.91;1778034;79;99508;-72
2021/12/31 07:32:14;;;;;;;20.45;11.22;;;;;;;10.07;100.00;100514.99;1773892;78;25826;-75
2021/12/31 07:34:40;;;;;;;16.97;10.55;;;;;;;10.08;100.00;100523.42;1773043;80;25757;-72
2021/12/31 07:37:08;;;;;;;19.23;11.40;;;;;;;10.09;100.00;100517.60;1773800;79;99178;-73
2021/12/31 07:39:35;;;;;;;19.92;11.70;;;;;;;10.07;100.00;100513.66;1772388;79;25839;-72
2021/12/31 07:42:03;;;;;;;34.55;13.93;;;;;;;10.06;100.00;100517.27;1773458;79;99259;-71
2021/12/31 07:44:32;;;;;;;27.42;13.28;;;;;;;10.06;100.00;100521.28;1765034;79;25834;-71
2021/12/31 07:47:01;;;;;;;29.47;14.23;;;;;;;10.03;100.00;100516.06;1772952;79;25732;-72
2021/12/31 07:49:28;;;;;;;27.60;14.47;;;;;;;10.05;100.00;100516.86;1768641;79;99318;-73
2021/12/31 07:51:54;;;;;;;32.73;13.30;;;;;;;10.07;100.00;100521.69;1769669;79;25788;-72
2021/12/31 07:54:20;;;;;;;23.55;13.88;;;;;;;10.08;100.00;100521.22;1768885;79;99141;-76
2021/12/31 07:56:48;;;;;;;25.97;14.43;;;;;;;10.09;100.00;100521.16;1745320;80;25851;-75
2021/12/31 07:59:14;;;;;;;32.85;14.50;;;;;;;10.11;100.00;100525.57;1772650;79;25705;-75
2021/12/31 08:01:41;;;;;;;24.92;13.70;;;;;;;10.11;100.00;100516.20;1773495;79;99175;-74
2021/12/31 08:04:07;;;;;;;24.45;14.40;;;;;;;10.13;100.00;100526.38;1765679;79;25828;-73
2021/12/31 08:06:34;;;;;;;23.22;13.62;;;;;;;10.11;100.00;100514.86;1767570;79;99320;-73
2021/12/31 08:09:02;;;;;;;25.27;13.58;;;;;;;10.16;100.00;100512.38;1770238;79;26505;-71
2021/12/31 08:11:29;;;;;;;26.02;14.10;;;;;;;10.16;100.00;100511.05;1767013;79;25878;-72
2021/12/31 08:13:58;;;;;;;28.40;13.20;;;;;;;10.17;100.00;100511.91;1773013;79;99354;-73
2021/12/31 08:16:23;;;;;;;23.90;13.93;;;;;;;10.18;100.00;100513.19;1734557;81;25785;-73
2021/12/31 08:18:51;;;;;;;25.27;14.33;;;;;;;10.19;100.00;100502.88;1732818;81;99234;-73
2021/12/31 08:21:16;;;;;;;25.05;12.88;;;;;;;10.19;100.00;100508.23;1776154;79;26448;-70
2021/12/31 08:23:42;;;;;;;26.65;13.32;;;;;;;10.21;100.00;100512.22;1767478;79;99789;-71
2021/12/31 08:26:08;;;;;;;29.55;15.90;;;;;;;10.21;100.00;100520.25;1772124;79;27681;-74
2021/12/31 08:28:37;;;;;;;24.82;12.98;;;;;;;10.22;100.00;100525.54;1768952;79;25804;-73
2021/12/31 08:31:04;;;;;;;21.02;13.28;;;;;;;10.23;100.00;100525.94;1768997;79;99118;-73
2021/12/31 08:33:30;;;;;;;22.65;12.85;;;;;;;10.22;100.00;100520.18;1767262;79;25919;-73
2021/12/31 08:36:00;;;;;;;25.90;12.82;;;;;;;10.25;100.00;100523.20;1759225;79;99361;-73
2021/12/31 08:38:29;;;;;;;24.52;14.33;;;;;;;10.26;100.00;100520.45;1761781;79;28060;-72
2021/12/31 08:40:57;;;;;;;25.12;13.22;;;;;;;10.28;100.00;100517.23;1759215;79;25877;-71
2021/12/31 08:43:26;;;;;;;24.25;13.55;;;;;;;10.29;100.00;100520.78;1755260;79;99298;-71
2021/12/31 08:45:54;;;;;;;21.37;13.05;;;;;;;10.29;100.00;100527.48;1757790;79;25906;-71
2021/12/31 08:48:20;;;;;;;21.80;12.30;;;;;;;10.28;100.00;100525.27;1762810;79;99158;-74
2021/12/31 08:50:48;;;;;;;20.05;11.65;;;;;;;10.29;100.00;100526.14;1756154;79;27416;-71
2021/12/31 08:53:17;;;;;;;18.73;10.88;;;;;;;10.29;100.00;100537.73;1759290;79;26370;-71
2021/12/31 08:55:45;;;;;;;19.57;11.50;;;;;;;10.30;100.00;100536.80;1761353;79;99287;-69
2021/12/31 08:58:15;;;;;;;23.12;11.95;;;;;;;10.31;100.00;100545.70;1756581;79;25883;-71
2021/12/31 09:00:42;;;;;;;18.55;11.85;;;;;;;10.32;100.00;100537.59;1764062;79;99184;-70
2021/12/31 09:03:09;;;;;;;23.62;11.50;;;;;;;10.34;100.00;100538.87;1760825;79;27475;-70
2021/12/31 09:05:36;;;;;;;16.37;10.23;;;;;;;10.37;100.00;100542.75;1756391;79;99406;-69
2021/12/31 09:08:04;;;;;;;19.70;11.20;;;;;;;10.37;100.00;100540.94;1762815;79;26617;-69
2021/12/31 09:10:33;;;;;;;15.58;10.70;;;;;;;10.38;100.00;100540.47;1762265;79;26599;-68
2021/12/31 09:13:01;;;;;;;15.50;9.95;;;;;;;10.40;100.00;100544.79;1760672;79;99189;-70
2021/12/31 09:15:29;;;;;;;18.92;10.10;;;;;;;10.39;100.00;100540.88;1761220;79;27450;-71
2021/12/31 09:17:56;;;;;;;22.58;11.45;;;;;;;10.37;100.00;100541.41;1758678;79;99398;-73
2021/12/31 09:20:25;;;;;;;17.48;9.33;;;;;;;10.36;100.00;100545.03;1758615;79;25877;-73
2021/12/31 09:22:51;;;;;;;18.25;10.18;;;;;;;10.33;100.00;100542.48;1761651;79;27232;-73
2021/12/31 09:25:18;;;;;;;19.82;9.85;;;;;;;10.33;100.00;100539.80;1761838;79;99218;-72
2021/12/31 09:27:45;;;;;;;20.23;10.15;;;;;;;10.32;100.00;100535.38;1760654;79;27503;-72
2021/12/31 09:30:14;;;;;;;14.45;9.80;;;;;;;10.31;100.00;100530.49;1763885;79;99432;-72
2021/12/31 09:32:42;;;;;;;14.70;9.55;;;;;;;10.31;100.00;100529.63;1766182;79;25861;-73
2021/12/31 09:35:11;;;;;;;17.02;9.58;;;;;;;10.30;100.00;100532.77;1777578;79;25759;-72
2021/12/31 09:37:40;;;;;;;15.70;9.33;;;;;;;10.31;100.00;100531.83;1772158;79;99059;-72
2021/12/31 09:40:11;;;;;;;18.90;9.60;;;;;;;10.33;100.00;100527.75;1773042;79;28164;-72
2021/12/31 09:42:41;;;;;;;24.90;10.60;;;;;;;10.33;100.00;100527.28;1775962;79;99329;-70
2021/12/31 09:45:08;;;;;;;18.07;9.43;;;;;;;10.33;100.00;100524.60;1776462;78;26456;-69
2021/12/31 09:47:35;;;;;;;17.50;9.95;;;;;;;10.33;100.00;100515.22;1770484;79;99248;-71
2021/12/31 09:50:01;;;;;;;20.17;9.55;;;;;;;10.37;100.00;100522.66;1737369;80;26575;-69
2021/12/31 09:52:31;;;;;;;16.25;9.68;;;;;;;10.37;100.00;100522.66;1720288;81;27468;-73
2021/12/31 09:54:57;;;;;;;13.32;8.58;;;;;;;10.36;100.00;100524.46;1722294;81;99125;-71
2021/12/31 09:57:22;;;;;;;16.97;10.13;;;;;;;10.37;100.00;100530.22;1734790;80;26031;-71
2021/12/31 09:59:52;;;;;;;15.95;9.85;;;;;;;10.37;100.00;100524.00;1771251;78;99319;-69
2021/12/31 10:02:34;;;;;;;16.07;8.93;;;;;;;10.40;100.00;100523.36;1776967;78;26309;-69
2021/12/31 10:05:04;;;;;;;17.52;9.20;;;;;;;10.40;100.00;100520.67;1774302;78;27522;-69
2021/12/31 10:07:30;;;;;;;17.77;9.53;;;;;;;10.38;100.00;100519.03;1768155;78;99101;-70
2021/12/31 10:10:16;;;;;;;14.85;9.60;;;;;;;10.38;100.00;100515.02;1776445;79;25838;-70
2021/12/31 10:12:58;;;;;;;18.40;9.80;;;;;;;10.40;100.00;100513.14;1774958;79;99051;-71
2021/12/31 10:15:25;;;;;;;17.42;10.32;;;;;;;10.40;100.00;100515.32;1767173;78;26457;-70
2021/12/31 10:17:54;;;;;;;17.70;10.23;;;;;;;10.42;100.00;100517.92;1778326;78;99335;-70
2021/12/31 10:20:22;;;;;;;17.67;10.15;;;;;;;10.42;100.00;100504.53;1775517;79;26452;-70
2021/12/31 10:22:50;;;;;;;22.10;10.55;;;;;;;10.42;100.00;100496.49;1780428;79;26433;-72
2021/12/31 10:25:25;;;;;;;19.35;10.75;;;;;;;10.47;100.00;100497.16;1768414;78;99241;-71
2021/12/31 10:27:53;;;;;;;20.10;11.08;;;;;;;10.51;100.00;100508.61;1775437;78;25504;-71
2021/12/31 10:30:26;;;;;;;17.57;10.55;;;;;;;10.53;100.00;100510.28;1756311;79;99317;-70
2021/12/31 10:32:54;;;;;;;17.37;10.13;;;;;;;10.55;100.00;100499.02;1774920;79;25715;-73
2021/12/31 10:35:25;;;;;;;21.55;10.82;;;;;;;10.58;100.00;100500.69;1768487;79;25570;-74
2021/12/31 10:38:01;;;;;;;18.25;10.78;;;;;;;10.57;100.00;100502.97;1768281;79;98207;-73
2021/12/31 10:40:36;;;;;;;16.17;10.10;;;;;;;10.58;100.00;100504.23;1770854;79;26007;-71
2021/12/31 10:43:21;;;;;;;15.75;9.18;;;;;;;10.61;100.00;100493.38;1749189;79;99195;-72
2021/12/31 10:46:10;;;;;;;17.80;10.00;;;;;;;10.64;100.00;100499.94;1770500;79;26383;-71
2021/12/31 10:48:48;;;;;;;23.25;10.98;;;;;;;10.67;100.00;100497.59;1769995;79;99202;-72
2021/12/31 10:51:42;;;;;;;23.75;14.25;;;;;;;10.68;100.00;100501.54;1774022;79;26552;-71
2021/12/31 10:54:30;;;;;;;37.98;25.72;;;;;;;10.69;100.00;100495.70;1769370;79;98602;-70
2021/12/31 10:57:00;;;;;;;43.48;31.52;;;;;;;10.70;100.00;100488.94;1774199;79;27361;-72
2021/12/31 10:59:33;;;;;;;47.65;34.53;;;;;;;10.70;100.00;100483.57;1771647;79;26411;-69
2021/12/31 11:01:58;;;;;;;58.33;38.83;;;;;;;10.73;100.00;100491.95;1768546;79;99072;-70
2021/12/31 11:04:29;;;;;;;53.63;39.03;;;;;;;10.74;100.00;100482.95;1769014;79;26431;-69
2021/12/31 11:06:58;;;;;;;28.95;20.50;;;;;;;10.74;100.00;100490.53;1772136;79;99265;-69
2021/12/31 11:09:24;;;;;;;24.90;14.28;;;;;;;10.74;100.00;100483.83;1774096;79;27482;-69
2021/12/31 11:11:52;;;;;;;23.50;13.40;;;;;;;10.75;100.00;100488.72;1766528;79;99347;-69
2021/12/31 11:14:20;;;;;;;22.13;12.95;;;;;;;10.73;100.00;100491.47;1763384;79;25749;-69
2021/12/31 11:16:47;;;;;;;16.07;10.08;;;;;;;10.73;100.00;100489.27;1772515;79;27874;-71
2021/12/31 11:19:15;;;;;;;18.17;10.88;;;;;;;10.73;100.00;100488.80;1769420;79;99289;-68